Time;durP1;ratioP1;P1;durP2;ratioP2;P2;SDS_P1;SDS_P2;PMS_P1;PMS_P2;Temp;Humidity;BMP_temperature;BMP_pressure;BME280_temperature;BME280_humidity;BME280_pressure;Samples;Min_cycle;Max_cycle;Signal;HPM_P1;HPM_P2
2021/12/15 00:01:37;;;;;;;;;;;;;;;8.36;100.00;102932.91;5075096;28;19974;-36
2021/12/15 00:04:03;;;;;;;;;;;;;;;8.35;100.00;102940.16;5075411;28;20349;-36
2021/12/15 00:06:28;;;;;;;;;;;;;;;8.35;100.00;102932.06;5074759;28;20007;-36
2021/12/15 00:08:55;;;;;;;;;;;;;;;8.34;100.00;102938.44;5075381;28;19912;-36
2021/12/15 00:11:22;;;;;;;;;;;;;;;8.33;100.00;102933.22;5075052;28;19951;-36
2021/12/15 00:13:48;;;;;;;;;;;;;;;8.32;100.00;102926.16;5074750;28;19962;-36
2021/12/15 00:16:14;;;;;;;;;;;;;;;8.31;100.00;102929.88;5075643;28;19967;-36
2021/12/15 00:18:44;;;;;;;;;;;;;;;8.30;100.00;102930.88;5074885;28;20353;-36
2021/12/15 00:21:11;;;;;;;;;;;;;;;8.29;100.00;102932.69;5074708;28;19916;-36
2021/12/15 00:23:37;;;;;;;;;;;;;;;8.29;100.00;102924.63;5074907;28;20010;-36
2021/12/15 00:26:03;;;;;;;;;;;;;;;8.30;100.00;102920.09;5075201;28;19942;-36
2021/12/15 00:28:28;;;;;;;;;;;;;;;8.29;100.00;102927.31;5074981;28;19922;-36
2021/12/15 00:30:53;;;;;;;;;;;;;;;8.29;100.00;102924.63;5075161;28;19989;-36
2021/12/15 00:33:18;;;;;;;;;;;;;;;8.30;100.00;102929.03;5074904;28;19920;-36
2021/12/15 00:35:44;;;;;;;;;;;;;;;8.30;100.00;102926.31;5074849;28;19912;-36
2021/12/15 00:38:09;;;;;;;;;;;;;;;8.30;100.00;102923.63;5073958;28;19955;-36
2021/12/15 00:40:34;;;;;;;;;;;;;;;8.29;100.00;102919.22;5074402;28;20348;-36
2021/12/15 00:43:01;;;;;;;;;;;;;;;8.27;100.00;102923.94;5073962;28;20402;-35
2021/12/15 00:45:26;;;;;;;;;;;;;;;8.27;100.00;102924.78;5074355;28;19913;-36
2021/12/15 00:47:52;;;;;;;;;;;;;;;8.27;100.00;102924.78;5074263;28;19913;-36
2021/12/15 00:50:19;;;;;;;;;;;;;;;8.27;100.00;102918.56;5074339;28;19913;-36
2021/12/15 00:52:46;;;;;;;;;;;;;;;8.28;100.00;102920.25;5074066;28;19959;-36
2021/12/15 00:55:13;;;;;;;;;;;;;;;8.27;100.00;102914.00;5074732;28;19912;-36
2021/12/15 00:57:38;;;;;;;;;;;;;;;8.28;100.00;102914.84;5074061;28;19924;-36
2021/12/15 01:00:07;;;;;;;;;;;;;;;8.28;100.00;102912.16;5073688;28;19916;-36
2021/12/15 01:02:33;;;;;;;;;;;;;;;8.20;100.00;102901.38;5055628;28;19978;-36
2021/12/15 01:04:58;;;;;;;;;;;;;;;8.27;100.00;102918.56;5073683;28;20356;-36
2021/12/15 01:07:23;;;;;;;;;;;;;;;8.28;100.00;102912.16;5073953;28;19913;-36
2021/12/15 01:09:52;;;;;;;;;;;;;;;8.27;100.00;102919.41;5074835;28;20076;-36
2021/12/15 01:12:38;;;;;;;;;;;;;;;8.28;100.00;102920.25;5074354;28;19935;-36
2021/12/15 01:20:41;;;;;;;;;;;;;;;8.28;100.00;102922.94;4972841;28;19914;-36
2021/12/15 01:23:08;;;;;;;;;;;;;;;8.26;100.00;102923.13;4973096;28;19925;-36
2021/12/15 01:25:39;;;;;;;;;;;;;;;8.27;100.00;102923.94;4973417;28;20270;-36
2021/12/15 01:28:05;;;;;;;;;;;;;;;8.26;100.00;102927.66;4972997;28;19921;-36
2021/12/15 01:30:32;;;;;;;;;;;;;;;8.25;100.00;102929.53;4973017;28;20293;-36
2021/12/15 01:32:58;;;;;;;;;;;;;;;8.20;100.00;102912.16;4972590;28;19941;-36
2021/12/15 01:35:24;;;;;;;;;;;;;;;8.24;100.00;102921.56;4972864;28;19961;-36
2021/12/15 01:37:49;;;;;;;;;;;;;;;8.21;100.00;102922.75;4972479;28;20008;-36
2021/12/15 01:40:24;;;;;;;;;;;;;;;8.23;100.00;102925.28;4972535;28;19925;-36
2021/12/15 01:42:49;;;;;;;;;;;;;;;8.20;100.00;102923.78;4972628;28;19953;-36
2021/12/15 01:48:00;;;;;;;;;;;;;;;8.19;100.00;102921.22;4973310;28;19941;-36
2021/12/15 01:50:25;;;;;;;;;;;;;;;8.19;100.00;102927.44;4971458;28;19914;-36
2021/12/15 01:52:50;;;;;;;;;;;;;;;8.20;100.00;102925.63;4972552;28;19918;-36
2021/12/15 01:55:19;;;;;;;;;;;;;;;8.19;100.00;102924.75;4984451;28;20402;-36
2021/12/15 01:57:45;;;;;;;;;;;;;;;8.20;100.00;102931.03;5073982;28;20007;-36
2021/12/15 02:00:13;;;;;;;;;;;;;;;8.21;100.00;102941.63;5073790;28;19963;-36
2021/12/15 02:02:38;;;;;;;;;;;;;;;8.21;100.00;102930.00;5073241;28;20373;-36
2021/12/15 02:05:04;;;;;;;;;;;;;;;8.22;100.00;102940.63;5073609;28;19912;-36
2021/12/15 02:07:30;;;;;;;;;;;;;;;8.20;100.00;102950.72;5072995;28;19992;-36
2021/12/15 02:12:28;;;;;;;;;;;;;;;8.20;100.00;102939.94;5073203;28;20019;-36
2021/12/15 02:14:53;;;;;;;;;;;;;;;8.21;100.00;102951.56;5073497;28;19913;-36
2021/12/15 02:17:19;;;;;;;;;;;;;;;8.21;100.00;102954.25;5073122;28;19924;-36
2021/12/15 02:19:44;;;;;;;;;;;;;;;8.21;100.00;102952.41;5073439;28;20371;-36
2021/12/15 02:22:10;;;;;;;;;;;;;;;8.21;100.00;102952.41;5073077;28;19912;-36
2021/12/15 02:24:37;;;;;;;;;;;;;;;8.22;100.00;102950.56;5072881;28;19912;-36
2021/12/15 02:27:04;;;;;;;;;;;;;;;8.23;100.00;102949.53;5073027;28;19935;-36
2021/12/15 02:29:34;;;;;;;;;;;;;;;8.25;100.00;102955.63;5073322;28;20413;-36
2021/12/15 02:32:35;;;;;;;;;;;;;;;8.24;100.00;102953.91;5072770;28;19919;-36
2021/12/15 02:37:29;;;;;;;;;;;;;;;8.27;100.00;102959.00;5072760;28;20022;-36
2021/12/15 02:39:59;;;;;;;;;;;;;;;8.26;100.00;102952.75;5072959;28;20366;-36
2021/12/15 02:42:29;;;;;;;;;;;;;;;8.28;100.00;102952.59;5072596;28;19920;-36
2021/12/15 02:44:55;;;;;;;;;;;;;;;8.28;100.00;102952.59;5054801;28;20356;-36
2021/12/15 02:47:22;;;;;;;;;;;;;;;8.28;100.00;102952.59;5072883;28;19917;-36
2021/12/15 02:49:50;;;;;;;;;;;;;;;8.26;100.00;102952.75;5072552;28;19912;-36
2021/12/15 02:52:16;;;;;;;;;;;;;;;8.25;100.00;102952.94;5072547;28;20371;-36
2021/12/15 02:54:41;;;;;;;;;;;;;;;8.26;100.00;102955.47;5055134;28;20010;-36
2021/12/15 02:57:10;;;;;;;;;;;;;;;8.25;100.00;102942.16;5073253;28;20295;-36
2021/12/15 03:00:01;;;;;;;;;;;;;;;8.26;100.00;102950.06;5073120;28;19917;-36
2021/12/15 03:02:43;;;;;;;;;;;;;;;8.26;100.00;102941.97;5073422;28;19912;-36
2021/12/15 03:15:41;;;;;;;;;;;;;;;8.22;100.00;102943.31;5076724;28;20045;-36
2021/12/15 03:18:07;;;;;;;;;;;;;;;8.22;100.00;102942.47;5076039;28;19959;-36
2021/12/15 03:20:35;;;;;;;;;;;;;;;8.22;100.00;102942.47;5076280;28;20287;-36
2021/12/15 03:23:00;;;;;;;;;;;;;;;8.24;100.00;102940.44;5075819;28;19963;-36
2021/12/15 03:25:29;;;;;;;;;;;;;;;8.24;100.00;102935.06;5076727;28;20374;-36
2021/12/15 03:33:37;;;;;;;;;;;;;;;8.24;100.00;102929.66;5076156;28;19995;-36
2021/12/15 03:36:08;;;;;;;;;;;;;;;8.26;100.00;102930.34;5076174;28;20007;-36
2021/12/15 03:38:34;;;;;;;;;;;;;;;8.26;100.00;102935.75;5076148;28;19941;-36
2021/12/15 03:40:59;;;;;;;;;;;;;;;8.28;100.00;102941.81;5075924;28;19916;-36
2021/12/15 03:43:25;;;;;;;;;;;;;;;8.27;100.00;102938.28;5075438;28;19912;-36
2021/12/15 03:45:52;;;;;;;;;;;;;;;8.27;100.00;102940.97;5057862;28;19938;-36
2021/12/15 03:48:20;;;;;;;;;;;;;;;8.29;100.00;102959.66;5075678;28;19912;-36
2021/12/15 03:50:46;;;;;;;;;;;;;;;8.29;100.00;102956.97;5075797;28;19919;-36
2021/12/15 03:53:12;;;;;;;;;;;;;;;8.30;100.00;102958.69;5075386;28;19912;-36
2021/12/15 03:55:38;;;;;;;;;;;;;;;8.29;100.00;102962.34;5075440;28;19913;-36
2021/12/15 03:58:07;;;;;;;;;;;;;;;8.22;100.00;102954.09;5075795;28;19912;-36
2021/12/15 04:00:32;;;;;;;;;;;;;;;8.29;100.00;102959.66;5075539;28;20440;-36
2021/12/15 04:02:58;;;;;;;;;;;;;;;8.29;100.00;102964.22;5075019;28;20018;-36
2021/12/15 04:05:24;;;;;;;;;;;;;;;8.28;100.00;102957.97;5074846;28;19912;-36
2021/12/15 04:07:50;;;;;;;;;;;;;;;8.29;100.00;102962.34;5074813;28;19912;-36
2021/12/15 04:10:19;;;;;;;;;;;;;;;8.31;100.00;102962.22;5075370;28;19919;-36
2021/12/15 04:12:44;;;;;;;;;;;;;;;8.31;100.00;102963.06;5075118;28;20045;-36
2021/12/15 04:17:46;;;;;;;;;;;;;;;8.31;100.00;102963.06;5074972;28;19916;-36
2021/12/15 04:20:12;;;;;;;;;;;;;;;8.31;100.00;102962.22;5075160;28;19913;-36
2021/12/15 04:22:38;;;;;;;;;;;;;;;8.31;100.00;102964.91;5075486;28;20252;-36
2021/12/15 04:25:15;;;;;;;;;;;;;;;8.32;100.00;102966.59;5074545;28;19912;-36
2021/12/15 04:27:49;;;;;;;;;;;;;;;8.33;100.00;102970.97;5075147;28;19963;-36
2021/12/15 04:30:15;;;;;;;;;;;;;;;8.32;100.00;102972.81;5074697;28;19912;-36
2021/12/15 04:32:42;;;;;;;;;;;;;;;8.31;100.00;102968.44;5075364;28;20241;-36
2021/12/15 04:35:08;;;;;;;;;;;;;;;8.31;100.00;102965.75;5074883;28;19962;-36
2021/12/15 04:37:34;;;;;;;;;;;;;;;8.31;100.00;102973.84;5074411;28;19955;-36
2021/12/15 04:39:59;;;;;;;;;;;;;;;8.32;100.00;102975.50;5074538;28;19962;-36
2021/12/15 04:42:26;;;;;;;;;;;;;;;8.32;100.00;102974.69;5074576;28;19912;-36
2021/12/15 04:44:56;;;;;;;;;;;;;;;8.32;100.00;102978.22;5074844;28;20428;-36
2021/12/15 04:47:21;;;;;;;;;;;;;;;8.32;100.00;102970.13;5074577;28;19916;-35
2021/12/15 04:49:50;;;;;;;;;;;;;;;8.32;100.00;102975.50;5074212;28;19913;-36
2021/12/15 04:52:17;;;;;;;;;;;;;;;8.33;100.00;102979.88;5074853;28;19956;-36
2021/12/15 04:54:42;;;;;;;;;;;;;;;8.33;100.00;102979.88;5056616;28;19913;-36
2021/12/15 04:57:08;;;;;;;;;;;;;;;8.34;100.00;102984.28;5074175;28;19912;-36
2021/12/15 04:59:34;;;;;;;;;;;;;;;8.35;100.00;102987.84;5074386;28;19924;-36
2021/12/15 05:01:59;;;;;;;;;;;;;;;8.35;100.00;102987.84;5073962;28;20004;-36
2021/12/15 05:04:25;;;;;;;;;;;;;;;8.34;100.00;102981.56;5074560;28;19912;-36
2021/12/15 05:06:50;;;;;;;;;;;;;;;8.35;100.00;102994.06;5074708;28;20356;-36
2021/12/15 05:09:16;;;;;;;;;;;;;;;8.35;100.00;102988.69;5074592;28;19962;-36
2021/12/15 05:11:41;;;;;;;;;;;;;;;8.35;100.00;102983.28;5073878;28;19955;-36
2021/12/15 05:14:07;;;;;;;;;;;;;;;8.34;100.00;102989.66;5074135;28;20010;-36
2021/12/15 05:16:32;;;;;;;;;;;;;;;8.36;100.00;102992.22;5056563;28;20344;-36
2021/12/15 05:18:58;;;;;;;;;;;;;;;8.34;100.00;102978.88;5074152;28;19916;-35
2021/12/15 05:21:23;;;;;;;;;;;;;;;8.37;100.00;102988.53;5073375;28;20025;-36
2021/12/15 05:23:55;;;;;;;;;;;;;;;8.36;100.00;102995.78;5073984;28;20353;-36
2021/12/15 05:26:20;;;;;;;;;;;;;;;8.37;100.00;102994.78;5073532;28;19918;-36
2021/12/15 05:28:46;;;;;;;;;;;;;;;8.37;100.00;102996.63;5073753;28;20011;-36
2021/12/15 05:31:11;;;;;;;;;;;;;;;8.38;100.00;103001.84;5074398;28;19986;-36
2021/12/15 05:33:36;;;;;;;;;;;;;;;8.35;100.00;102996.75;5073441;28;19935;-36
2021/12/15 05:36:02;;;;;;;;;;;;;;;8.35;100.00;102996.75;5055954;28;20248;-36
2021/12/15 05:38:27;;;;;;;;;;;;;;;8.35;100.00;102999.47;5073909;28;20292;-35
2021/12/15 05:40:53;;;;;;;;;;;;;;;8.35;100.00;102999.47;5055212;28;19962;-36
2021/12/15 05:43:18;;;;;;;;;;;;;;;8.36;100.00;102995.78;5074307;28;19960;-36
2021/12/15 05:45:43;;;;;;;;;;;;;;;8.37;100.00;102994.78;5074060;28;19912;-36
2021/12/15 05:48:11;;;;;;;;;;;;;;;8.37;100.00;102997.47;5073458;28;20007;-36
2021/12/15 05:50:37;;;;;;;;;;;;;;;8.37;100.00;102994.78;5074036;28;19966;-36
2021/12/15 05:53:03;;;;;;;;;;;;;;;8.37;100.00;102999.31;5073130;28;20384;-36
2021/12/15 05:55:29;;;;;;;;;;;;;;;8.37;100.00;103000.16;5074235;28;19917;-36
2021/12/15 05:57:54;;;;;;;;;;;;;;;8.37;100.00;102999.31;5073677;28;20023;-36
2021/12/15 06:00:22;;;;;;;;;;;;;;;8.38;100.00;102995.59;5073048;28;19970;-36
2021/12/15 06:02:47;;;;;;;;;;;;;;;8.38;100.00;103001.84;5073604;28;19920;-35
2021/12/15 06:05:14;;;;;;;;;;;;;;;8.38;100.00;102995.59;5073591;28;19916;-36
2021/12/15 06:07:39;;;;;;;;;;;;;;;8.39;100.00;103002.69;5072957;28;19916;-36
2021/12/15 06:10:06;;;;;;;;;;;;;;;8.37;100.00;103000.16;5074032;28;19965;-36
2021/12/15 06:12:31;;;;;;;;;;;;;;;8.37;100.00;103002.84;5073503;28;19934;-36
2021/12/15 06:14:57;;;;;;;;;;;;;;;8.37;100.00;103010.94;5073492;28;20007;-35
2021/12/15 06:17:25;;;;;;;;;;;;;;;8.39;100.00;103014.31;5073231;28;20288;-36
2021/12/15 06:19:51;;;;;;;;;;;;;;;8.40;100.00;103017.88;5073959;28;19950;-36
2021/12/15 06:22:19;;;;;;;;;;;;;;;8.39;100.00;103019.69;5072711;28;19912;-36
2021/12/15 06:24:44;;;;;;;;;;;;;;;8.40;100.00;103016.03;5073358;28;19952;-36
2021/12/15 06:27:17;;;;;;;;;;;;;;;8.39;100.00;103014.31;5073038;28;19962;-36
2021/12/15 06:29:42;;;;;;;;;;;;;;;8.38;100.00;103018.03;5073832;28;19993;-36
2021/12/15 06:32:07;;;;;;;;;;;;;;;8.38;100.00;103025.25;5073011;28;19955;-36
2021/12/15 06:34:32;;;;;;;;;;;;;;;8.38;100.00;103018.03;5073219;28;19919;-36
2021/12/15 06:36:58;;;;;;;;;;;;;;;8.40;100.00;103028.66;5073430;28;20015;-36
2021/12/15 06:39:23;;;;;;;;;;;;;;;8.41;100.00;103019.56;5077520;28;19916;-36
2021/12/15 06:41:48;;;;;;;;;;;;;;;8.42;100.00;103027.47;5077238;28;19912;-36
2021/12/15 06:44:15;;;;;;;;;;;;;;;8.42;100.00;103029.31;5076715;28;20319;-36
2021/12/15 06:59:59;;;;;;;;;;;;;;;8.44;100.00;103032.69;5076813;28;19920;-36
2021/12/15 07:02:24;;;;;;;;;;;;;;;8.44;100.00;103032.69;5076309;28;19912;-36
2021/12/15 07:04:49;;;;;;;;;;;;;;;8.43;100.00;103037.25;5076395;28;20271;-36
2021/12/15 07:07:14;;;;;;;;;;;;;;;8.44;100.00;103038.97;5076374;28;19918;-36
2021/12/15 07:09:40;;;;;;;;;;;;;;;8.44;100.00;103033.56;5076633;28;19951;-36
2021/12/15 07:12:06;;;;;;;;;;;;;;;8.44;100.00;103038.97;5076500;28;19919;-36
2021/12/15 07:14:32;;;;;;;;;;;;;;;8.44;100.00;103052.44;5076068;28;20447;-36
2021/12/15 07:16:58;;;;;;;;;;;;;;;8.45;100.00;103051.44;5075736;28;19999;-36
2021/12/15 07:22:15;;;;;;;;;;;;;;;8.44;100.00;103055.13;5075944;28;20225;-36
2021/12/15 07:24:41;;;;;;;;;;;;;;;8.43;100.00;103053.41;5076927;28;19920;-36
2021/12/15 07:27:06;;;;;;;;;;;;;;;8.44;100.00;103049.75;5076028;28;20241;-36
2021/12/15 07:29:32;;;;;;;;;;;;;;;8.45;100.00;103056.81;5076603;28;19920;-36
2021/12/15 07:31:58;;;;;;;;;;;;;;;8.45;100.00;103051.44;5076288;28;19977;-36
2021/12/15 07:34:23;;;;;;;;;;;;;;;8.46;100.00;103055.81;5076506;28;20256;-36
2021/12/15 07:36:48;;;;;;;;;;;;;;;8.47;100.00;103056.66;5075830;28;19912;-36
2021/12/15 07:39:15;;;;;;;;;;;;;;;8.46;100.00;103061.19;5057312;28;20279;-36
2021/12/15 07:44:29;;;;;;;;;;;;;;;8.47;100.00;103060.19;4962231;28;19918;-36
2021/12/15 07:46:54;;;;;;;;;;;;;;;8.48;100.00;103055.63;4974599;28;20366;-36
2021/12/15 07:49:20;;;;;;;;;;;;;;;8.48;100.00;103061.88;4975154;28;19961;-36
2021/12/15 07:51:46;;;;;;;;;;;;;;;8.49;100.00;103062.69;4974425;28;19924;-36
2021/12/15 07:54:12;;;;;;;;;;;;;;;8.47;100.00;103075.53;4975014;28;20371;-36
2021/12/15 07:56:38;;;;;;;;;;;;;;;8.47;100.00;103065.56;4974569;28;19914;-36
2021/12/15 07:59:03;;;;;;;;;;;;;;;8.47;100.00;103068.28;4974685;28;20456;-36
2021/12/15 08:01:29;;;;;;;;;;;;;;;8.48;100.00;103063.72;4974272;28;19961;-36
2021/12/15 08:03:54;;;;;;;;;;;;;;;8.49;100.00;103071.66;4974555;28;19938;-36
2021/12/15 08:06:19;;;;;;;;;;;;;;;8.49;100.00;103073.50;4974160;28;20481;-36
2021/12/15 08:08:45;;;;;;;;;;;;;;;8.49;100.00;103071.66;4974900;28;20357;-36
2021/12/15 08:11:10;;;;;;;;;;;;;;;8.49;100.00;103073.50;4974106;28;19914;-36
2021/12/15 08:13:36;;;;;;;;;;;;;;;8.49;100.00;103079.75;4974706;28;20259;-36
2021/12/15 08:16:02;;;;;;;;;;;;;;;8.50;100.00;103081.44;4973714;28;19921;-36
2021/12/15 08:18:28;;;;;;;;;;;;;;;8.49;100.00;103077.06;4973867;28;19921;-36
2021/12/15 08:20:53;;;;;;;;;;;;;;;8.49;100.00;103079.75;4995303;28;19912;-36
2021/12/15 08:23:19;;;;;;;;;;;;;;;8.50;100.00;103081.44;5054810;28;19935;-36
2021/12/15 08:25:45;;;;;;;;;;;;;;;8.50;100.00;103081.44;5054761;28;19928;-36
2021/12/15 08:28:10;;;;;;;;;;;;;;;8.54;100.00;103081.97;5054660;28;19958;-36
2021/12/15 08:30:36;;;;;;;;;;;;;;;8.52;100.00;103076.72;5054950;28;20323;-36
2021/12/15 08:33:04;;;;;;;;;;;;;;;8.55;100.00;103077.41;5054665;28;19920;-36
2021/12/15 08:35:34;;;;;;;;;;;;;;;8.56;100.00;103089.88;5054830;28;19913;-36
2021/12/15 08:37:59;;;;;;;;;;;;;;;8.58;100.00;103087.84;5054714;28;19919;-36
2021/12/15 08:40:26;;;;;;;;;;;;;;;8.59;100.00;103086.84;5054782;28;20284;-35
2021/12/15 08:42:52;;;;;;;;;;;;;;;8.59;100.00;103085.03;5054077;28;19913;-36
2021/12/15 08:45:18;;;;;;;;;;;;;;;8.58;100.00;103088.69;5054154;28;20415;-36
2021/12/15 08:47:43;;;;;;;;;;;;;;;8.59;100.00;103085.03;5054342;28;19921;-35
2021/12/15 08:50:11;;;;;;;;;;;;;;;8.60;100.00;103089.41;5054893;28;20375;-36
2021/12/15 08:52:36;;;;;;;;;;;;;;;8.59;100.00;103081.44;5054129;28;19923;-36
2021/12/15 08:55:04;;;;;;;;;;;;;;;8.59;100.00;103079.63;5054955;28;19912;-36
2021/12/15 08:57:29;;;;;;;;;;;;;;;8.61;100.00;103088.38;5053962;28;19919;-36
2021/12/15 08:59:54;;;;;;;;;;;;;;;8.63;100.00;103085.50;5066117;28;20403;-36
2021/12/15 09:02:20;;;;;;;;;;;;;;;8.64;100.00;103079.13;5074373;28;19912;-36
2021/12/15 09:04:45;;;;;;;;;;;;;;;8.66;100.00;103082.50;5074233;28;19913;-36
2021/12/15 09:07:10;;;;;;;;;;;;;;;8.67;100.00;103095.81;5073655;28;19912;-36
2021/12/15 09:09:35;;;;;;;;;;;;;;;8.67;100.00;103103.91;5074577;28;19912;-36
2021/12/15 09:12:01;;;;;;;;;;;;;;;8.68;100.00;103096.66;5073752;28;20007;-36
2021/12/15 09:14:26;;;;;;;;;;;;;;;8.70;100.00;103091.97;5073824;28;19912;-36
2021/12/15 09:16:55;;;;;;;;;;;;;;;8.70;100.00;103097.34;5073996;28;19963;-36
2021/12/15 09:19:20;;;;;;;;;;;;;;;8.71;100.00;103097.19;5074497;28;19920;-36
2021/12/15 09:21:46;;;;;;;;;;;;;;;8.74;100.00;103109.50;5073596;28;20356;-36
2021/12/15 09:24:13;;;;;;;;;;;;;;;8.75;100.00;103112.03;5073770;28;19936;-36
2021/12/15 09:26:39;;;;;;;;;;;;;;;8.76;100.00;103111.03;5073612;28;19917;-36
2021/12/15 09:29:06;;;;;;;;;;;;;;;8.79;100.00;103125.22;5073597;28;20379;-36
2021/12/15 09:31:31;;;;;;;;;;;;;;;8.80;100.00;103118.78;5073949;28;19920;-36
2021/12/15 09:33:57;;;;;;;;;;;;;;;8.80;100.00;103114.25;5073580;28;19912;-36
2021/12/15 09:36:25;;;;;;;;;;;;;;;8.83;100.00;103124.69;5073218;28;20030;-36
2021/12/15 09:38:53;;;;;;;;;;;;;;;8.85;100.00;103127.25;5073542;28;19922;-36
2021/12/15 09:41:19;;;;;;;;;;;;;;;8.85;100.00;103128.09;5073394;28;19922;-36
2021/12/15 09:43:45;;;;;;;;;;;;;;;8.86;100.00;103118.97;5073711;28;19946;-36
2021/12/15 09:46:16;;;;;;;;;;;;;;;8.88;100.00;103116.09;5074192;28;20282;-36
2021/12/15 10:05:16;;;;;;;;;;;;;;;9.09;100.00;103137.25;5073344;28;20276;-36
2021/12/15 10:20:50;;;;;;;;;;;;;;;9.30;100.00;103134.94;5077446;28;20403;-36
2021/12/15 10:23:23;;;;;;;;;;;;;;;9.34;100.00;103133.59;5077055;28;20011;-36
2021/12/15 10:25:49;;;;;;;;;;;;;;;9.36;100.00;103133.41;5077826;28;19999;-36
2021/12/15 10:28:19;;;;;;;;;;;;;;;9.38;100.00;103134.09;5076963;28;19919;-36
2021/12/15 10:30:47;;;;;;;;;;;;;;;9.42;100.00;103132.72;5076924;28;19919;-36
2021/12/15 10:33:13;;;;;;;;;;;;;;;9.46;100.00;103120.59;5077138;28;19958;-36
2021/12/15 10:35:40;;;;;;;;;;;;;;;9.48;100.00;103124.81;5077777;28;20114;-36
2021/12/15 10:38:17;;;;;;;;;;;;;;;9.50;100.00;103119.25;5076627;28;20272;-36
2021/12/15 10:40:54;;;;;;;;;;;;;;;9.52;100.00;103126.19;5077003;28;20253;-36
2021/12/15 10:43:21;;;;;;;;;;;;;;;9.55;100.00;103130.38;5076765;28;19935;-36
2021/12/15 10:45:48;;;;;;;;;;;;;;;9.55;100.00;103130.38;5076934;28;19912;-36
2021/12/15 10:48:24;;;;;;;;;;;;;;;9.55;100.00;103131.22;5077067;28;19912;-36
2021/12/15 10:50:50;;;;;;;;;;;;;;;9.57;100.00;103128.38;5077067;28;20014;-36
2021/12/15 10:53:28;;;;;;;;;;;;;;;9.58;100.00;103137.31;5076559;28;20344;-36
2021/12/15 10:55:53;;;;;;;;;;;;;;;9.58;100.00;103134.63;5076510;28;19912;-36
2021/12/15 10:58:35;;;;;;;;;;;;;;;9.59;100.00;103130.91;5076859;28;20360;-36
2021/12/15 11:01:03;;;;;;;;;;;;;;;9.58;100.00;103137.31;5076912;28;20015;-36
2021/12/15 11:03:36;;;;;;;;;;;;;;;9.59;100.00;103136.31;5075913;28;20335;-36
2021/12/15 11:06:17;;;;;;;;;;;;;;;9.58;100.00;103134.63;5075999;28;20413;-36
2021/12/15 11:08:42;;;;;;;;;;;;;;;9.58;100.00;103132.75;5076085;28;19920;-36
2021/12/15 11:11:07;;;;;;;;;;;;;;;9.59;100.00;103134.44;5075957;28;19920;-36
2021/12/15 11:13:33;;;;;;;;;;;;;;;9.61;100.00;103132.41;5076173;28;19919;-36
2021/12/15 11:15:58;;;;;;;;;;;;;;;9.64;100.00;103123.97;5076376;28;19966;-36
2021/12/15 11:18:25;;;;;;;;;;;;;;;9.65;100.00;103136.47;5076606;28;20370;-36
2021/12/15 11:20:52;;;;;;;;;;;;;;;9.68;100.00;103127.19;5075883;28;19995;-36
2021/12/15 11:23:19;;;;;;;;;;;;;;;9.68;100.00;103127.19;5075507;28;20287;-36
2021/12/15 11:25:48;;;;;;;;;;;;;;;9.68;100.00;103124.50;5076043;28;19965;-36
2021/12/15 11:28:18;;;;;;;;;;;;;;;9.70;100.00;103127.84;5076107;28;19965;-36
2021/12/15 11:30:52;;;;;;;;;;;;;;;9.70;100.00;103139.50;5075865;28;19920;-36
2021/12/15 11:33:23;;;;;;;;;;;;;;;9.73;100.00;103127.53;5076143;28;20044;-36
2021/12/15 11:35:55;;;;;;;;;;;;;;;9.73;100.00;103128.38;5076533;28;19928;-36
2021/12/15 11:38:22;;;;;;;;;;;;;;;9.77;100.00;103126.19;5075397;28;20299;-36
2021/12/15 11:41:01;;;;;;;;;;;;;;;9.77;100.00;103118.06;5075448;28;20348;-36
2021/12/15 11:43:28;;;;;;;;;;;;;;;9.79;100.00;103116.03;5075555;28;20313;-36
2021/12/15 11:45:53;;;;;;;;;;;;;;;9.78;100.00;103117.88;5075925;28;20091;-36
2021/12/15 11:48:21;;;;;;;;;;;;;;;9.79;100.00;103116.88;5057575;28;19956;-36
2021/12/15 11:50:48;;;;;;;;;;;;;;;9.81;100.00;103122.13;5076039;28;19931;-36
2021/12/15 11:53:21;;;;;;;;;;;;;;;9.82;100.00;103112.16;5075487;28;19912;-36
2021/12/15 11:55:46;;;;;;;;;;;;;;;9.80;100.00;103113.16;5075647;28;19912;-36
2021/12/15 11:58:11;;;;;;;;;;;;;;;9.83;100.00;103111.13;5075369;28;19913;-36
2021/12/15 12:00:37;;;;;;;;;;;;;;;9.85;100.00;103119.91;5075760;28;20388;-36
2021/12/15 12:03:02;;;;;;;;;;;;;;;9.86;100.00;103125.16;5075621;28;19913;-36
2021/12/15 12:05:33;;;;;;;;;;;;;;;9.88;100.00;103123.13;5075772;28;19933;-36
2021/12/15 12:08:00;;;;;;;;;;;;;;;9.89;100.00;103123.94;5075604;28;20339;-36
2021/12/15 12:10:30;;;;;;;;;;;;;;;9.89;100.00;103121.25;5075455;28;19974;-36
2021/12/15 12:13:06;;;;;;;;;;;;;;;9.90;100.00;103106.72;5075742;28;20382;-36
2021/12/15 12:15:32;;;;;;;;;;;;;;;9.91;100.00;103103.03;5075231;28;20368;-36
2021/12/15 12:18:00;;;;;;;;;;;;;;;9.93;100.00;103112.63;5075155;28;19916;-36
2021/12/15 12:20:30;;;;;;;;;;;;;;;9.94;100.00;103108.91;5075535;28;19913;-36
2021/12/15 12:22:56;;;;;;;;;;;;;;;9.95;100.00;103105.19;5074441;28;19913;-36
2021/12/15 12:25:24;;;;;;;;;;;;;;;9.98;100.00;103109.41;5074775;28;19913;-36
2021/12/15 12:27:50;;;;;;;;;;;;;;;9.99;100.00;103109.22;5074692;28;19918;-36
2021/12/15 12:30:18;;;;;;;;;;;;;;;9.99;100.00;103106.53;5074809;28;20007;-36
2021/12/15 12:32:44;;;;;;;;;;;;;;;10.00;100.00;103100.13;5074642;28;19912;-36
2021/12/15 12:35:10;;;;;;;;;;;;;;;9.99;100.00;103103.00;5074156;28;19962;-36
2021/12/15 12:37:38;;;;;;;;;;;;;;;9.99;100.00;103101.13;5074627;28;20356;-36
2021/12/15 12:40:24;;;;;;;;;;;;;;;10.01;100.00;103104.53;5075166;28;19913;-36
2021/12/15 12:42:49;;;;;;;;;;;;;;;10.00;100.00;103094.72;5074817;28;20288;-36
2021/12/15 12:45:22;;;;;;;;;;;;;;;10.02;100.00;103089.16;5074527;28;19913;-36
2021/12/15 12:48:12;;;;;;;;;;;;;;;10.03;100.00;103086.25;5074618;28;20390;-36
2021/12/15 12:57:53;;;;;;;;;;;;;;;10.04;100.00;103087.94;5074601;28;19936;-36
2021/12/15 12:59:28;;;;;;;;;;;;;;;10.14;100.00;103082.34;5074686;28;20007;-36
2021/12/15 13:01:56;;;;;;;;;;;;;;;10.16;100.00;103085.72;5074053;28;19970;-36
2021/12/15 13:04:21;;;;;;;;;;;;;;;10.16;100.00;103087.59;5073991;28;19916;-36
2021/12/15 13:06:47;;;;;;;;;;;;;;;10.18;100.00;103082.84;5074085;28;19912;-36
2021/12/15 13:09:16;;;;;;;;;;;;;;;10.19;100.00;103079.13;5073944;28;19913;-36
2021/12/15 13:11:43;;;;;;;;;;;;;;;10.19;100.00;103073.69;5074181;28;19916;-36
2021/12/15 13:14:09;;;;;;;;;;;;;;;10.18;100.00;103083.69;5074206;28;20333;-36
2021/12/15 13:16:54;;;;;;;;;;;;;;;10.20;100.00;103078.09;5073655;28;19963;-36
2021/12/15 13:19:23;;;;;;;;;;;;;;;10.20;100.00;103086.19;5074150;28;19912;-36
2021/12/15 13:21:51;;;;;;;;;;;;;;;10.21;100.00;103082.50;5055243;28;19920;-36
2021/12/15 13:28:40;;;;;;;;;;;;;;;10.22;100.00;103076.06;5074085;28;20011;-45
2021/12/15 13:30:02;;;;;;;;;;;;;;;10.25;100.00;103086.59;5074098;28;20402;-36
2021/12/15 13:32:30;;;;;;;;;;;;;;;10.26;100.00;103088.25;5073607;28;19917;-36
2021/12/15 13:34:56;;;;;;;;;;;;;;;10.25;100.00;103094.69;5073647;28;19913;-36
2021/12/15 13:37:40;;;;;;;;;;;;;;;10.24;100.00;103088.41;5073865;28;20332;-36
2021/12/15 13:40:09;;;;;;;;;;;;;;;10.25;100.00;103092.00;5073557;28;20410;-36
2021/12/15 13:42:41;;;;;;;;;;;;;;;10.24;100.00;103087.56;5073468;28;20327;-36
2021/12/15 13:45:24;;;;;;;;;;;;;;;10.21;100.00;103102.28;5074104;28;19913;-36
2021/12/15 13:47:49;;;;;;;;;;;;;;;10.24;100.00;103090.28;5073449;28;19963;-36
2021/12/15 13:50:17;;;;;;;;;;;;;;;10.20;100.00;103099.72;5055439;28;19956;-36
2021/12/15 13:52:44;;;;;;;;;;;;;;;10.21;100.00;103098.72;5073415;28;19913;-36
2021/12/15 13:55:22;;;;;;;;;;;;;;;10.21;100.00;103096.03;5073424;28;19913;-36
2021/12/15 13:57:56;;;;;;;;;;;;;;;10.20;100.00;103097.00;5074221;28;20020;-36
2021/12/15 14:00:24;;;;;;;;;;;;;;;10.18;100.00;103099.06;5074098;28;20007;-36
2021/12/15 14:03:04;;;;;;;;;;;;;;;10.17;100.00;103094.69;5073076;28;20386;-36
2021/12/15 14:05:31;;;;;;;;;;;;;;;10.17;100.00;103094.69;5074202;28;19913;-36
2021/12/15 14:07:56;;;;;;;;;;;;;;;10.15;100.00;103091.28;5073358;28;19912;-36